sensor_id;sensor_type;location;lat;lon;timestamp;pressure;altitude;pressure_sealevel;temperature;humidity
72210;BME280;60113;48.762;12.302;2023-03-11T00:00:04;95741.88;;;0.71;72.30
72210;BME280;60113;48.762;12.302;2023-03-11T00:02:33;95737.84;;;0.67;73.22
72210;BME280;60113;48.762;12.302;2023-03-11T00:04:58;95764.88;;;0.61;73.93
72210;BME280;60113;48.762;12.302;2023-03-11T00:07:23;95762.84;;;0.52;75.06
72210;BME280;60113;48.762;12.302;2023-03-11T00:09:49;95749.56;;;0.43;74.63
72210;BME280;60113;48.762;12.302;2023-03-11T00:12:14;95783.59;;;0.35;76.89
72210;BME280;60113;48.762;12.302;2023-03-11T00:14:39;95787.25;;;0.31;75.78
72210;BME280;60113;48.762;12.302;2023-03-11T00:17:05;95795.69;;;0.35;72.81
72210;BME280;60113;48.762;12.302;2023-03-11T00:19:30;95794.47;;;0.41;70.58
72210;BME280;60113;48.762;12.302;2023-03-11T00:21:58;95797.63;;;0.46;71.80
72210;BME280;60113;48.762;12.302;2023-03-11T00:24:25;95808.06;;;0.44;70.70
72210;BME280;60113;48.762;12.302;2023-03-11T00:26:51;95800.13;;;0.47;69.42
72210;BME280;60113;48.762;12.302;2023-03-11T00:29:16;95796.78;;;0.45;70.21
72210;BME280;60113;48.762;12.302;2023-03-11T00:31:41;95810.66;;;0.44;69.76
72210;BME280;60113;48.762;12.302;2023-03-11T00:34:09;95821.00;;;0.44;69.70
72210;BME280;60113;48.762;12.302;2023-03-11T00:36:35;95822.09;;;0.40;71.27
72210;BME280;60113;48.762;12.302;2023-03-11T00:39:01;95820.41;;;0.39;68.24
72210;BME280;60113;48.762;12.302;2023-03-11T00:41:27;95829.84;;;0.40;68.45
72210;BME280;60113;48.762;12.302;2023-03-11T00:43:52;95836.66;;;0.41;65.83
72210;BME280;60113;48.762;12.302;2023-03-11T00:46:18;95841.00;;;0.41;65.41
72210;BME280;60113;48.762;12.302;2023-03-11T00:48:43;95844.50;;;0.40;66.59
72210;BME280;60113;48.762;12.302;2023-03-11T00:51:12;95822.91;;;0.41;65.49
72210;BME280;60113;48.762;12.302;2023-03-11T00:53:38;95848.03;;;0.39;66.83
72210;BME280;60113;48.762;12.302;2023-03-11T00:56:07;95850.63;;;0.39;64.08
72210;BME280;60113;48.762;12.302;2023-03-11T00:58:33;95851.16;;;0.44;61.72
72210;BME280;60113;48.762;12.302;2023-03-11T01:01:00;95847.75;;;0.43;63.01
72210;BME280;60113;48.762;12.302;2023-03-11T01:03:25;95863.34;;;0.42;60.76
72210;BME280;60113;48.762;12.302;2023-03-11T01:05:50;95869.25;;;0.44;60.61
72210;BME280;60113;48.762;12.302;2023-03-11T01:08:16;95867.41;;;0.46;62.53
72210;BME280;60113;48.762;12.302;2023-03-11T01:10:41;95871.28;;;0.39;62.87
72210;BME280;60113;48.762;12.302;2023-03-11T01:13:06;95872.19;;;0.37;61.65
72210;BME280;60113;48.762;12.302;2023-03-11T01:15:33;95855.19;;;0.33;62.63
72210;BME280;60113;48.762;12.302;2023-03-11T01:17:59;95855.88;;;0.37;60.73
72210;BME280;60113;48.762;12.302;2023-03-11T01:20:27;95867.09;;;0.36;62.40
72210;BME280;60113;48.762;12.302;2023-03-11T01:22:52;95855.97;;;0.35;62.50
72210;BME280;60113;48.762;12.302;2023-03-11T01:25:19;95864.53;;;0.36;62.64
72210;BME280;60113;48.762;12.302;2023-03-11T01:27:45;95857.88;;;0.32;64.75
72210;BME280;60113;48.762;12.302;2023-03-11T01:30:12;95880.38;;;0.30;64.29
72210;BME280;60113;48.762;12.302;2023-03-11T01:32:38;95873.72;;;0.26;65.07
72210;BME280;60113;48.762;12.302;2023-03-11T01:35:03;95880.09;;;0.20;66.22
72210;BME280;60113;48.762;12.302;2023-03-11T01:37:28;95871.50;;;0.19;65.26
72210;BME280;60113;48.762;12.302;2023-03-11T01:39:54;95880.09;;;0.20;65.40
72210;BME280;60113;48.762;12.302;2023-03-11T01:42:19;95888.56;;;0.22;64.62
72210;BME280;60113;48.762;12.302;2023-03-11T01:44:44;95825.66;;;0.23;63.74
72210;BME280;60113;48.762;12.302;2023-03-11T01:49:38;95894.91;;;0.32;62.59
72210;BME280;60113;48.762;12.302;2023-03-11T01:52:06;95896.63;;;0.32;63.49
72210;BME280;60113;48.762;12.302;2023-03-11T01:54:32;95900.25;;;0.29;64.75
72210;BME280;60113;48.762;12.302;2023-03-11T01:56:59;95909.72;;;0.29;63.47
72210;BME280;60113;48.762;12.302;2023-03-11T01:59:29;95916.16;;;0.21;66.37
72210;BME280;60113;48.762;12.302;2023-03-11T02:04:36;95887.06;;;0.18;64.91
72210;BME280;60113;48.762;12.302;2023-03-11T02:07:03;95902.56;;;0.18;65.54
72210;BME280;60113;48.762;12.302;2023-03-11T02:09:28;95900.84;;;0.18;64.59
72210;BME280;60113;48.762;12.302;2023-03-11T02:11:54;95916.44;;;0.17;65.86
72210;BME280;60113;48.762;12.302;2023-03-11T02:14:20;95906.81;;;0.19;64.39
72210;BME280;60113;48.762;12.302;2023-03-11T02:16:45;95913.09;;;0.15;65.93
72210;BME280;60113;48.762;12.302;2023-03-11T02:19:56;95902.84;;;0.13;66.05
72210;BME280;60113;48.762;12.302;2023-03-11T02:22:02;95917.66;;;0.09;66.32
72210;BME280;60113;48.762;12.302;2023-03-11T02:24:42;95928.00;;;0.09;67.49
72210;BME280;60113;48.762;12.302;2023-03-11T02:27:13;95928.06;;;0.08;66.95
72210;BME280;60113;48.762;12.302;2023-03-11T02:29:40;95923.84;;;0.07;67.79
72210;BME280;60113;48.762;12.302;2023-03-11T02:32:07;95913.69;;;0.04;68.10
72210;BME280;60113;48.762;12.302;2023-03-11T02:34:34;95923.00;;;0.06;66.57
72210;BME280;60113;48.762;12.302;2023-03-11T02:37:02;95910.25;;;0.03;67.66
72210;BME280;60113;48.762;12.302;2023-03-11T02:39:28;95916.34;;;0.02;67.32
72210;BME280;60113;48.762;12.302;2023-03-11T02:41:56;95922.53;;;-0.01;69.10
72210;BME280;60113;48.762;12.302;2023-03-11T02:44:22;95917.53;;;-0.04;68.97
72210;BME280;60113;48.762;12.302;2023-03-11T02:46:48;95923.78;;;-0.08;68.98
72210;BME280;60113;48.762;12.302;2023-03-11T02:49:13;95920.59;;;-0.13;69.92
72210;BME280;60113;48.762;12.302;2023-03-11T02:51:39;95914.84;;;-0.18;71.28
72210;BME280;60113;48.762;12.302;2023-03-11T02:54:13;95939.25;;;-0.24;72.15
72210;BME280;60113;48.762;12.302;2023-03-11T02:56:38;95934.72;;;-0.53;78.33
72210;BME280;60113;48.762;12.302;2023-03-11T02:59:04;95937.22;;;-0.85;93.36
72210;BME280;60113;48.762;12.302;2023-03-11T03:01:29;95942.50;;;-1.04;89.45
72210;BME280;60113;48.762;12.302;2023-03-11T03:03:55;95933.84;;;-1.21;86.91
72210;BME280;60113;48.762;12.302;2023-03-11T03:06:20;95933.56;;;-1.32;88.04
72210;BME280;60113;48.762;12.302;2023-03-11T03:08:46;95931.59;;;-1.45;87.87
72210;BME280;60113;48.762;12.302;2023-03-11T03:11:11;95926.81;;;-1.53;89.12
72210;BME280;60113;48.762;12.302;2023-03-11T03:13:36;95928.03;;;-1.60;88.32
72210;BME280;60113;48.762;12.302;2023-03-11T03:16:02;95939.38;;;-1.64;88.67
72210;BME280;60113;48.762;12.302;2023-03-11T03:18:27;95938.56;;;-1.65;88.78
72210;BME280;60113;48.762;12.302;2023-03-11T03:20:53;95938.50;;;-1.63;88.86
72210;BME280;60113;48.762;12.302;2023-03-11T03:23:18;95955.47;;;-1.59;88.54
72210;BME280;60113;48.762;12.302;2023-03-11T03:25:43;95950.16;;;-1.56;87.03
72210;BME280;60113;48.762;12.302;2023-03-11T03:28:12;95955.84;;;-1.49;85.52
72210;BME280;60113;48.762;12.302;2023-03-11T03:30:38;95953.78;;;-1.42;83.58
72210;BME280;60113;48.762;12.302;2023-03-11T03:33:03;95968.50;;;-1.27;82.44
72210;BME280;60113;48.762;12.302;2023-03-11T03:35:28;95957.38;;;-1.09;79.50
72210;BME280;60113;48.762;12.302;2023-03-11T03:37:54;95954.09;;;-0.95;79.66
72210;BME280;60113;48.762;12.302;2023-03-11T03:40:19;95953.47;;;-0.83;77.56
72210;BME280;60113;48.762;12.302;2023-03-11T03:42:44;95959.25;;;-0.78;77.96
72210;BME280;60113;48.762;12.302;2023-03-11T03:45:10;95965.97;;;-0.75;78.62
72210;BME280;60113;48.762;12.302;2023-03-11T03:47:35;95956.66;;;-0.78;80.14
72210;BME280;60113;48.762;12.302;2023-03-11T03:50:04;95956.97;;;-0.84;81.49
72210;BME280;60113;48.762;12.302;2023-03-11T03:52:30;95972.84;;;-0.92;83.21
72210;BME280;60113;48.762;12.302;2023-03-11T03:54:55;95988.09;;;-1.05;85.95
72210;BME280;60113;48.762;12.302;2023-03-11T03:57:21;95983.75;;;-1.22;88.64
72210;BME280;60113;48.762;12.302;2023-03-11T03:59:46;96012.03;;;-1.38;89.62
72210;BME280;60113;48.762;12.302;2023-03-11T04:02:11;96005.84;;;-1.53;90.90
72210;BME280;60113;48.762;12.302;2023-03-11T04:04:40;95991.81;;;-1.65;90.09
72210;BME280;60113;48.762;12.302;2023-03-11T04:07:05;95987.88;;;-1.72;88.69
72210;BME280;60113;48.762;12.302;2023-03-11T04:09:34;96000.97;;;-1.77;89.64
72210;BME280;60113;48.762;12.302;2023-03-11T04:11:59;95998.03;;;-1.89;90.31
72210;BME280;60113;48.762;12.302;2023-03-11T04:14:25;95993.09;;;-1.93;89.36
72210;BME280;60113;48.762;12.302;2023-03-11T04:16:50;95993.31;;;-1.98;88.47
72210;BME280;60113;48.762;12.302;2023-03-11T04:19:15;95990.88;;;-2.01;87.90
72210;BME280;60113;48.762;12.302;2023-03-11T04:21:40;95986.78;;;-2.05;86.89
72210;BME280;60113;48.762;12.302;2023-03-11T04:24:06;95989.44;;;-2.07;85.66
72210;BME280;60113;48.762;12.302;2023-03-11T04:26:34;95989.16;;;-2.01;83.20
72210;BME280;60113;48.762;12.302;2023-03-11T04:28:59;96000.19;;;-1.98;83.80
72210;BME280;60113;48.762;12.302;2023-03-11T04:31:25;96003.53;;;-1.96;82.38
72210;BME280;60113;48.762;12.302;2023-03-11T04:33:50;96003.59;;;-1.98;82.98
72210;BME280;60113;48.762;12.302;2023-03-11T04:36:15;96017.41;;;-1.99;81.73
72210;BME280;60113;48.762;12.302;2023-03-11T04:38:41;96025.94;;;-1.98;81.87
72210;BME280;60113;48.762;12.302;2023-03-11T04:41:06;96027.91;;;-2.04;81.83
72210;BME280;60113;48.762;12.302;2023-03-11T04:43:32;96022.81;;;-2.05;81.52
72210;BME280;60113;48.762;12.302;2023-03-11T04:45:57;96028.88;;;-2.06;81.59
72210;BME280;60113;48.762;12.302;2023-03-11T04:48:22;96031.53;;;-2.08;81.87
72210;BME280;60113;48.762;12.302;2023-03-11T04:50:49;96032.34;;;-2.07;81.17
72210;BME280;60113;48.762;12.302;2023-03-11T04:53:14;96035.84;;;-2.08;80.27
72210;BME280;60113;48.762;12.302;2023-03-11T04:55:40;96041.81;;;-2.08;80.41
72210;BME280;60113;48.762;12.302;2023-03-11T04:58:05;96023.88;;;-2.09;80.37
72210;BME280;60113;48.762;12.302;2023-03-11T05:00:31;96047.19;;;-2.12;79.27
72210;BME280;60113;48.762;12.302;2023-03-11T05:02:56;96060.13;;;-2.14;79.82
72210;BME280;60113;48.762;12.302;2023-03-11T05:05:21;96052.47;;;-2.16;78.78
72210;BME280;60113;48.762;12.302;2023-03-11T05:07:47;96063.72;;;-2.18;79.96
72210;BME280;60113;48.762;12.302;2023-03-11T05:10:15;96061.34;;;-2.23;79.03
72210;BME280;60113;48.762;12.302;2023-03-11T05:12:46;96065.66;;;-2.23;79.24
72210;BME280;60113;48.762;12.302;2023-03-11T05:15:12;96076.84;;;-2.24;78.52
72210;BME280;60113;48.762;12.302;2023-03-11T05:17:37;96078.66;;;-2.27;79.63
72210;BME280;60113;48.762;12.302;2023-03-11T05:20:05;96081.38;;;-2.30;79.13
72210;BME280;60113;48.762;12.302;2023-03-11T05:22:32;96093.53;;;-2.33;78.92
72210;BME280;60113;48.762;12.302;2023-03-11T05:24:57;96108.13;;;-2.34;79.33
72210;BME280;60113;48.762;12.302;2023-03-11T05:27:23;96106.41;;;-2.33;77.82
72210;BME280;60113;48.762;12.302;2023-03-11T05:29:48;96110.75;;;-2.35;77.79
72210;BME280;60113;48.762;12.302;2023-03-11T05:32:13;96112.41;;;-2.33;77.67
72210;BME280;60113;48.762;12.302;2023-03-11T05:34:39;96099.47;;;-2.31;76.18
72210;BME280;60113;48.762;12.302;2023-03-11T05:37:04;96086.59;;;-2.31;76.83
72210;BME280;60113;48.762;12.302;2023-03-11T05:39:29;96119.25;;;-2.33;77.66
72210;BME280;60113;48.762;12.302;2023-03-11T05:42:04;96121.06;;;-2.35;77.07
72210;BME280;60113;48.762;12.302;2023-03-11T05:44:30;96123.69;;;-2.37;76.99
72210;BME280;60113;48.762;12.302;2023-03-11T05:46:55;96117.81;;;-2.39;77.27
72210;BME280;60113;48.762;12.302;2023-03-11T05:49:21;96125.50;;;-2.39;77.58
72210;BME280;60113;48.762;12.302;2023-03-11T05:51:46;96125.59;;;-2.41;77.54
72210;BME280;60113;48.762;12.302;2023-03-11T05:54:15;96124.59;;;-2.38;77.30
72210;BME280;60113;48.762;12.302;2023-03-11T05:56:41;96120.25;;;-2.36;78.01
72210;BME280;60113;48.762;12.302;2023-03-11T05:59:07;96132.06;;;-2.32;76.30
72210;BME280;60113;48.762;12.302;2023-03-11T06:01:33;96129.38;;;-2.29;77.81
72210;BME280;60113;48.762;12.302;2023-03-11T06:03:58;96137.94;;;-2.28;77.84
72210;BME280;60113;48.762;12.302;2023-03-11T06:06:24;96142.09;;;-2.26;77.93
72210;BME280;60113;48.762;12.302;2023-03-11T06:08:49;96145.47;;;-2.23;78.40
72210;BME280;60113;48.762;12.302;2023-03-11T06:11:15;96137.66;;;-2.22;77.96
72210;BME280;60113;48.762;12.302;2023-03-11T06:13:40;96138.41;;;-2.20;77.53
72210;BME280;60113;48.762;12.302;2023-03-11T06:16:06;96145.19;;;-2.17;78.01
72210;BME280;60113;48.762;12.302;2023-03-11T06:18:32;96145.94;;;-2.15;77.10
72210;BME280;60113;48.762;12.302;2023-03-11T06:20:57;96143.31;;;-2.14;77.27
72210;BME280;60113;48.762;12.302;2023-03-11T06:23:23;96149.25;;;-2.11;77.13
72210;BME280;60113;48.762;12.302;2023-03-11T06:25:58;96153.41;;;-2.09;77.57
72210;BME280;60113;48.762;12.302;2023-03-11T06:28:24;96155.91;;;-2.07;77.63
72210;BME280;60113;48.762;12.302;2023-03-11T06:30:50;96162.63;;;-2.03;77.06
72210;BME280;60113;48.762;12.302;2023-03-11T06:33:15;96178.75;;;-1.99;77.47
72210;BME280;60113;48.762;12.302;2023-03-11T06:35:43;96176.00;;;-1.95;77.47
72210;BME280;60113;48.762;12.302;2023-03-11T06:38:08;96181.00;;;-1.92;77.26
72210;BME280;60113;48.762;12.302;2023-03-11T06:40:35;96180.88;;;-1.89;76.90
72210;BME280;60113;48.762;12.302;2023-03-11T06:43:01;96188.41;;;-1.84;76.80
72210;BME280;60113;48.762;12.302;2023-03-11T06:45:27;96196.91;;;-1.82;76.25
72210;BME280;60113;48.762;12.302;2023-03-11T06:47:52;96189.88;;;-1.78;77.24
72210;BME280;60113;48.762;12.302;2023-03-11T06:50:17;96201.03;;;-1.78;77.18
72210;BME280;60113;48.762;12.302;2023-03-11T06:52:43;96208.75;;;-1.78;76.61
72210;BME280;60113;48.762;12.302;2023-03-11T06:55:08;96210.41;;;-1.77;76.37
72210;BME280;60113;48.762;12.302;2023-03-11T06:57:34;96206.03;;;-1.74;76.70
72210;BME280;60113;48.762;12.302;2023-03-11T06:59:59;96207.63;;;-1.72;76.01
72210;BME280;60113;48.762;12.302;2023-03-11T07:02:27;96210.16;;;-1.70;75.85
72210;BME280;60113;48.762;12.302;2023-03-11T07:04:52;96220.38;;;-1.69;75.78
72210;BME280;60113;48.762;12.302;2023-03-11T07:07:17;96217.75;;;-1.67;76.03
72210;BME280;60113;48.762;12.302;2023-03-11T07:09:44;96220.25;;;-1.66;75.84
72210;BME280;60113;48.762;12.302;2023-03-11T07:12:09;96226.81;;;-1.58;75.86
72210;BME280;60113;48.762;12.302;2023-03-11T07:14:34;96226.16;;;-1.43;75.25
72210;BME280;60113;48.762;12.302;2023-03-11T07:17:03;96228.59;;;-1.20;74.82
72210;BME280;60113;48.762;12.302;2023-03-11T07:19:28;96233.84;;;-1.03;73.67
72210;BME280;60113;48.762;12.302;2023-03-11T07:21:55;96228.03;;;-0.89;73.63
72210;BME280;60113;48.762;12.302;2023-03-11T07:24:20;96230.47;;;-0.85;75.13
72210;BME280;60113;48.762;12.302;2023-03-11T07:26:45;96236.59;;;-0.88;74.43
72210;BME280;60113;48.762;12.302;2023-03-11T07:29:11;96242.38;;;-0.83;75.34
72210;BME280;60113;48.762;12.302;2023-03-11T07:31:39;96250.94;;;-0.63;75.21
72210;BME280;60113;48.762;12.302;2023-03-11T07:34:05;96246.78;;;-0.48;74.25
72210;BME280;60113;48.762;12.302;2023-03-11T07:36:35;96247.75;;;-0.31;74.03
72210;BME280;60113;48.762;12.302;2023-03-11T07:39:03;96253.38;;;-0.05;74.62
72210;BME280;60113;48.762;12.302;2023-03-11T07:41:30;96251.44;;;0.16;72.40
72210;BME280;60113;48.762;12.302;2023-03-11T07:43:56;96264.88;;;0.41;72.75
72210;BME280;60113;48.762;12.302;2023-03-11T07:46:22;96260.47;;;0.60;72.89
72210;BME280;60113;48.762;12.302;2023-03-11T07:48:48;96262.44;;;0.71;71.68
72210;BME280;60113;48.762;12.302;2023-03-11T07:51:27;96263.81;;;0.79;69.77
72210;BME280;60113;48.762;12.302;2023-03-11T07:53:54;96274.00;;;0.82;71.03
72210;BME280;60113;48.762;12.302;2023-03-11T07:56:20;96275.91;;;0.78;71.41
72210;BME280;60113;48.762;12.302;2023-03-11T07:58:46;96280.16;;;0.79;70.87
72210;BME280;60113;48.762;12.302;2023-03-11T08:01:16;96280.16;;;0.79;71.06
72210;BME280;60113;48.762;12.302;2023-03-11T08:03:42;96277.41;;;0.82;71.11
72210;BME280;60113;48.762;12.302;2023-03-11T08:06:12;96287.44;;;0.89;73.19
72210;BME280;60113;48.762;12.302;2023-03-11T08:08:38;96289.53;;;0.82;71.67
72210;BME280;60113;48.762;12.302;2023-03-11T08:11:03;96287.28;;;0.92;70.92
72210;BME280;60113;48.762;12.302;2023-03-11T08:13:29;96294.22;;;1.07;71.33
72210;BME280;60113;48.762;12.302;2023-03-11T08:15:54;96286.75;;;1.19;71.34
72210;BME280;60113;48.762;12.302;2023-03-11T08:18:19;96290.41;;;1.31;70.38
72210;BME280;60113;48.762;12.302;2023-03-11T08:20:44;96292.84;;;1.34;68.60
72210;BME280;60113;48.762;12.302;2023-03-11T08:23:10;96289.56;;;1.46;68.87
72210;BME280;60113;48.762;12.302;2023-03-11T08:25:37;96301.25;;;1.21;66.35
72210;BME280;60113;48.762;12.302;2023-03-11T08:28:02;96298.09;;;1.65;66.54
72210;BME280;60113;48.762;12.302;2023-03-11T08:30:28;96306.81;;;1.94;68.48
72210;BME280;60113;48.762;12.302;2023-03-11T08:32:53;96300.91;;;1.60;64.23
72210;BME280;60113;48.762;12.302;2023-03-11T08:35:19;96307.78;;;2.08;69.56
72210;BME280;60113;48.762;12.302;2023-03-11T08:37:44;96307.41;;;2.30;66.04
72210;BME280;60113;48.762;12.302;2023-03-11T08:40:10;96290.56;;;2.07;63.13
72210;BME280;60113;48.762;12.302;2023-03-11T08:42:36;96316.16;;;2.13;65.58
72210;BME280;60113;48.762;12.302;2023-03-11T08:45:01;96316.63;;;1.73;66.37
72210;BME280;60113;48.762;12.302;2023-03-11T08:47:26;96320.50;;;1.33;65.26
72210;BME280;60113;48.762;12.302;2023-03-11T08:49:52;96336.34;;;1.43;66.52
72210;BME280;60113;48.762;12.302;2023-03-11T08:52:17;96320.91;;;1.58;63.39
72210;BME280;60113;48.762;12.302;2023-03-11T08:54:43;96326.25;;;1.55;64.48
72210;BME280;60113;48.762;12.302;2023-03-11T08:57:08;96329.25;;;1.63;62.94
72210;BME280;60113;48.762;12.302;2023-03-11T08:59:34;96337.50;;;1.54;63.67
72210;BME280;60113;48.762;12.302;2023-03-11T09:02:00;96330.84;;;1.66;64.09
72210;BME280;60113;48.762;12.302;2023-03-11T09:04:25;96330.34;;;1.75;62.15
72210;BME280;60113;48.762;12.302;2023-03-11T09:06:51;96334.81;;;2.04;63.44
72210;BME280;60113;48.762;12.302;2023-03-11T09:09:16;96327.72;;;2.22;63.70
72210;BME280;60113;48.762;12.302;2023-03-11T09:11:45;96329.13;;;2.58;63.86
72210;BME280;60113;48.762;12.302;2023-03-11T09:14:10;96338.50;;;2.61;61.26
72210;BME280;60113;48.762;12.302;2023-03-11T09:16:36;96335.66;;;2.35;59.38
72210;BME280;60113;48.762;12.302;2023-03-11T09:19:01;96341.63;;;2.21;61.81
72210;BME280;60113;48.762;12.302;2023-03-11T09:21:31;96345.16;;;2.20;64.84
72210;BME280;60113;48.762;12.302;2023-03-11T09:23:56;96355.84;;;1.83;61.45
72210;BME280;60113;48.762;12.302;2023-03-11T09:26:22;96358.41;;;1.50;61.95
72210;BME280;60113;48.762;12.302;2023-03-11T09:28:47;96361.63;;;1.38;62.23
72210;BME280;60113;48.762;12.302;2023-03-11T09:31:13;96367.34;;;1.45;62.43
72210;BME280;60113;48.762;12.302;2023-03-11T09:33:39;96359.75;;;1.58;65.66
72210;BME280;60113;48.762;12.302;2023-03-11T09:36:05;96359.81;;;1.89;65.39
72210;BME280;60113;48.762;12.302;2023-03-11T09:38:34;96358.28;;;2.17;63.78
72210;BME280;60113;48.762;12.302;2023-03-11T09:41:01;96357.25;;;1.89;60.62
72210;BME280;60113;48.762;12.302;2023-03-11T09:49:01;96370.22;;;2.50;61.57
72210;BME280;60113;48.762;12.302;2023-03-11T09:51:31;96367.03;;;2.30;62.71
72210;BME280;60113;48.762;12.302;2023-03-11T09:54:00;96363.03;;;2.24;62.10
72210;BME280;60113;48.762;12.302;2023-03-11T09:56:33;96371.97;;;2.35;60.24
72210;BME280;60113;48.762;12.302;2023-03-11T09:59:07;96365.13;;;2.48;60.34
72210;BME280;60113;48.762;12.302;2023-03-11T10:01:38;96372.88;;;2.65;59.60
72210;BME280;60113;48.762;12.302;2023-03-11T10:04:11;96378.94;;;3.09;60.17
72210;BME280;60113;48.762;12.302;2023-03-11T10:06:39;96375.09;;;3.16;56.04
72210;BME280;60113;48.762;12.302;2023-03-11T10:17:12;96371.75;;;3.71;58.42
72210;BME280;60113;48.762;12.302;2023-03-11T10:19:43;96373.94;;;3.64;57.31
72210;BME280;60113;48.762;12.302;2023-03-11T10:27:34;96383.78;;;3.00;57.36
72210;BME280;60113;48.762;12.302;2023-03-11T10:30:22;96391.09;;;2.94;60.66
72210;BME280;60113;48.762;12.302;2023-03-11T10:33:00;96391.22;;;2.61;58.72
72210;BME280;60113;48.762;12.302;2023-03-11T10:35:37;96391.25;;;2.45;59.73
72210;BME280;60113;48.762;12.302;2023-03-11T10:38:17;96391.81;;;2.50;61.85
72210;BME280;60113;48.762;12.302;2023-03-11T10:40:44;96394.44;;;2.34;60.42
72210;BME280;60113;48.762;12.302;2023-03-11T10:43:15;96406.94;;;2.28;62.50
72210;BME280;60113;48.762;12.302;2023-03-11T10:45:41;96409.41;;;1.98;63.77
72210;BME280;60113;48.762;12.302;2023-03-11T10:48:14;96403.03;;;1.88;62.19
72210;BME280;60113;48.762;12.302;2023-03-11T10:50:43;96411.91;;;1.84;63.74
72210;BME280;60113;48.762;12.302;2023-03-11T10:53:16;96415.09;;;1.39;63.85
72210;BME280;60113;48.762;12.302;2023-03-11T10:55:47;96422.63;;;1.44;64.44
72210;BME280;60113;48.762;12.302;2023-03-11T10:58:14;96425.53;;;1.37;65.75
72210;BME280;60113;48.762;12.302;2023-03-11T11:00:43;96420.28;;;1.39;65.46
72210;BME280;60113;48.762;12.302;2023-03-11T11:03:16;96424.38;;;1.43;65.98
72210;BME280;60113;48.762;12.302;2023-03-11T11:05:55;96422.16;;;1.19;64.70
72210;BME280;60113;48.762;12.302;2023-03-11T11:08:22;96420.75;;;0.78;63.38
72210;BME280;60113;48.762;12.302;2023-03-11T11:10:57;96426.84;;;0.77;64.08
72210;BME280;60113;48.762;12.302;2023-03-11T11:13:28;96427.38;;;0.66;64.63
72210;BME280;60113;48.762;12.302;2023-03-11T11:16:31;96429.50;;;0.58;65.13
72210;BME280;60113;48.762;12.302;2023-03-11T11:26:40;96428.59;;;0.77;66.28
72210;BME280;60113;48.762;12.302;2023-03-11T11:31:32;96422.47;;;0.78;64.96
72210;BME280;60113;48.762;12.302;2023-03-11T11:33:57;96419.28;;;0.90;63.80
72210;BME280;60113;48.762;12.302;2023-03-11T11:36:27;96421.88;;;1.08;64.68
72210;BME280;60113;48.762;12.302;2023-03-11T11:38:53;96418.50;;;1.23;63.76
72210;BME280;60113;48.762;12.302;2023-03-11T11:41:24;96420.38;;;1.54;63.41
72210;BME280;60113;48.762;12.302;2023-03-11T11:43:51;96410.47;;;1.78;61.73
72210;BME280;60113;48.762;12.302;2023-03-11T11:54:23;96411.66;;;1.89;60.97
72210;BME280;60113;48.762;12.302;2023-03-11T11:56:50;96416.00;;;1.72;62.24
72210;BME280;60113;48.762;12.302;2023-03-11T11:59:16;96425.16;;;1.45;61.68
72210;BME280;60113;48.762;12.302;2023-03-11T12:04:28;96420.03;;;1.44;62.26
72210;BME280;60113;48.762;12.302;2023-03-11T12:09:51;96416.69;;;1.42;61.75
72210;BME280;60113;48.762;12.302;2023-03-11T12:17:27;96392.31;;;1.62;59.71
72210;BME280;60113;48.762;12.302;2023-03-11T12:27:21;96421.06;;;1.57;59.11
72210;BME280;60113;48.762;12.302;2023-03-11T12:29:50;96421.31;;;1.53;59.01
72210;BME280;60113;48.762;12.302;2023-03-11T12:32:50;96412.94;;;1.47;59.60
72210;BME280;60113;48.762;12.302;2023-03-11T12:35:30;96430.97;;;1.33;60.01
72210;BME280;60113;48.762;12.302;2023-03-11T12:37:55;96434.03;;;1.23;60.90
72210;BME280;60113;48.762;12.302;2023-03-11T12:43:22;96431.69;;;1.01;59.88
72210;BME280;60113;48.762;12.302;2023-03-11T12:45:48;96432.59;;;1.00;59.92
72210;BME280;60113;48.762;12.302;2023-03-11T12:49:15;96427.28;;;1.03;59.46
72210;BME280;60113;48.762;12.302;2023-03-11T12:53:50;96427.66;;;1.13;58.40
72210;BME280;60113;48.762;12.302;2023-03-11T13:03:54;96413.53;;;1.53;59.85
72210;BME280;60113;48.762;12.302;2023-03-11T13:06:37;96410.91;;;1.70;59.94
72210;BME280;60113;48.762;12.302;2023-03-11T13:09:10;96405.94;;;1.82;58.34
72210;BME280;60113;48.762;12.302;2023-03-11T13:11:41;96406.22;;;1.93;59.62
72210;BME280;60113;48.762;12.302;2023-03-11T13:16:38;96405.84;;;2.16;59.85
72210;BME280;60113;48.762;12.302;2023-03-11T13:21:54;96403.75;;;2.69;59.34
72210;BME280;60113;48.762;12.302;2023-03-11T13:37:19;96418.97;;;2.59;56.00
72210;BME280;60113;48.762;12.302;2023-03-11T13:42:22;96422.38;;;2.45;55.46
72210;BME280;60113;48.762;12.302;2023-03-11T13:44:50;96432.81;;;2.60;53.51
72210;BME280;60113;48.762;12.302;2023-03-11T13:47:16;96420.59;;;2.62;52.92
72210;BME280;60113;48.762;12.302;2023-03-11T13:52:15;96434.44;;;2.92;52.65
72210;BME280;60113;48.762;12.302;2023-03-11T13:57:14;96442.47;;;2.72;52.91
72210;BME280;60113;48.762;12.302;2023-03-11T13:59:45;96448.66;;;2.70;56.09
72210;BME280;60113;48.762;12.302;2023-03-11T14:02:25;96442.41;;;2.74;55.10
72210;BME280;60113;48.762;12.302;2023-03-11T14:04:54;96440.06;;;2.69;55.64
72210;BME280;60113;48.762;12.302;2023-03-11T14:09:45;96453.00;;;2.39;56.00
72210;BME280;60113;48.762;12.302;2023-03-11T14:12:11;96468.75;;;2.19;55.24
72210;BME280;60113;48.762;12.302;2023-03-11T14:17:16;96469.25;;;1.94;59.07
72210;BME280;60113;48.762;12.302;2023-03-11T14:19:42;96476.06;;;1.79;60.42
72210;BME280;60113;48.762;12.302;2023-03-11T14:22:08;96479.97;;;1.70;60.87
72210;BME280;60113;48.762;12.302;2023-03-11T14:24:34;96478.88;;;1.58;61.47
72210;BME280;60113;48.762;12.302;2023-03-11T14:27:00;96482.41;;;1.39;62.92
72210;BME280;60113;48.762;12.302;2023-03-11T14:29:31;96490.25;;;1.37;62.74
72210;BME280;60113;48.762;12.302;2023-03-11T14:31:57;96483.38;;;1.36;63.52
72210;BME280;60113;48.762;12.302;2023-03-11T14:34:24;96491.16;;;1.36;64.22
72210;BME280;60113;48.762;12.302;2023-03-11T14:36:52;96491.50;;;1.30;64.29
72210;BME280;60113;48.762;12.302;2023-03-11T14:41:49;96490.59;;;1.14;62.16